Zeewolde, Netherlands
Current Conditions -  °F | °C
As of 9:25 PM on Thursday 29 Jan 2015 (Local Time) from EHDL Reporting Station
Haze Haze  
Wind Chill: 32°   Ceiling: 1200
Heat Index: 32°   Visibility: 4mi
Dew Point: 32°   Wind: 3mph
Humidity: 100%   Direction: 120°ESE
Pressure: 28.7"   Gusts: NA
Location:  52.33°N, 5.54°E
Report Text: EHDL 292025Z AUTO 12003KT 6000 BR BKN012 OVC014 00/00 Q0972 GRN
Loading
Personal Weather Stations






























Interactive Weather Map New forecast layout! Learn more

10-Day Weather Forecast

Advertisements
Track Severe Weather on mobile